PWSweather.com
Personal Weather Stations
Station Observations
MDHALE1
Southwest Baltimore Co., Halethorpe, MD 21227

Southwest Baltimore Co.Halethorpe, MD 21227

Lat: 39.23643, Lon: -76.696959

Elevation: 86

Station Type: Davis Vantage Pro2+

http://www.halethorpeweather.com

Latest ConditionsUpdated 8:15:01 AM EDT Tuesday, Jul 23, 2019
Currently Today's Max Today's Min Today's Average
Temperature 69.0°F20.6°C 77.1°F25.1°C 67.8°F19.9°C 70.6°F21.4°C
Dew Point 62.6°F17.0°C 69.5°F20.8°C 61.8°F16.6°C 64.3°F17.9°C
Winds 3.5 mph W5.6 kmh W 8.1 mph -13.0 kmh - - 2.5 mph 4.0 kmh
Wind Gusts 6.9 mph11.1 kmh 10.4 mph16.7 kmh - -
Humidity 80% 84% 75% 81%
Pressure 29.85 in1010.8 mb 29.85 in1010.8 mb 29.70 in1005.8 mb -
Precipitation - 0.31 in7.9 mm - -
Hour Temp Dew Point Humidity Winds Wind Gusts Pressure Precip Precip Rate Daily Precip Total
08:15 AM 69.0°F20.6°C 62.6°F17.0°C 80% 3.5 mph W5.6 kmh W 6.9 mph11.1 kmh 29.85 in1010.8 mb - 0.00 in0.0 mm 0.31 in7.9 mm
08:04 AM 68.8°F20.4°C 62.7°F17.1°C 81% 2.3 mph NNW3.7 kmh NNW 3.5 mph5.6 kmh 29.84 in1010.5 mb - 0.00 in0.0 mm 0.31 in7.9 mm
08:00 AM 68.7°F20.4°C 62.7°F17.1°C 81% 2.3 mph SW3.7 kmh SW 2.3 mph3.7 kmh 29.84 in1010.5 mb - 0.00 in0.0 mm 0.31 in7.9 mm
07:45 AM 68.5°F20.3°C 62.8°F17.1°C 82% 1.2 mph SW1.9 kmh SW 3.5 mph5.6 kmh 29.84 in1010.5 mb - 0.00 in0.0 mm 0.31 in7.9 mm
07:30 AM 68.3°F20.2°C 62.6°F17.0°C 82% 3.5 mph WSW5.6 kmh WSW 10.4 mph16.7 kmh 29.84 in1010.5 mb - 0.00 in0.0 mm 0.31 in7.9 mm
07:15 AM 68.2°F20.1°C 62.5°F16.9°C 82% 2.3 mph SW3.7 kmh SW 3.5 mph5.6 kmh 29.84 in1010.5 mb - 0.00 in0.0 mm 0.31 in7.9 mm
07:00 AM 68.1°F20.1°C 62.3°F16.8°C 82% Calm Calm 1.2 mph1.9 kmh 29.83 in1010.2 mb - 0.00 in0.0 mm 0.31 in7.9 mm
06:45 AM 67.9°F19.9°C 62.2°F16.8°C 82% 2.3 mph SW3.7 kmh SW 3.5 mph5.6 kmh 29.83 in1010.2 mb - 0.01 in0.3 mm 0.31 in7.9 mm
06:30 AM 67.8°F19.9°C 62.1°F16.7°C 82% 1.2 mph W1.9 kmh W 2.3 mph3.7 kmh 29.82 in1009.8 mb - 0.01 in0.3 mm 0.31 in7.9 mm
06:15 AM 67.9°F19.9°C 61.9°F16.6°C 81% 3.5 mph SSW5.6 kmh SSW 4.6 mph7.4 kmh 29.82 in1009.8 mb - 0.01 in0.3 mm 0.31 in7.9 mm
06:00 AM 67.8°F19.9°C 61.8°F16.6°C 81% 2.3 mph SSW3.7 kmh SSW 2.3 mph3.7 kmh 29.80 in1009.1 mb - 0.01 in0.3 mm 0.31 in7.9 mm
05:45 AM 67.9°F19.9°C 61.9°F16.6°C 81% 3.5 mph NNW5.6 kmh NNW 6.9 mph11.1 kmh 29.79 in1008.8 mb - 0.00 in0.0 mm 0.30 in7.6 mm
05:30 AM 67.9°F19.9°C 61.9°F16.6°C 81% 2.3 mph W3.7 kmh W 4.6 mph7.4 kmh 29.79 in1008.8 mb - 0.00 in0.0 mm 0.30 in7.6 mm
05:15 AM 68.0°F20.0°C 62.0°F16.7°C 81% 2.3 mph SW3.7 kmh SW 4.6 mph7.4 kmh 29.78 in1008.5 mb - 0.00 in0.0 mm 0.30 in7.6 mm
05:00 AM 68.1°F20.1°C 62.0°F16.7°C 81% 2.3 mph SSW3.7 kmh SSW 4.6 mph7.4 kmh 29.77 in1008.1 mb - 0.00 in0.0 mm 0.30 in7.6 mm
04:45 AM 68.1°F20.1°C 62.1°F16.7°C 81% 1.2 mph WSW1.9 kmh WSW 2.3 mph3.7 kmh 29.76 in1007.8 mb - 0.00 in0.0 mm 0.30 in7.6 mm
04:30 AM 68.1°F20.1°C 62.1°F16.7°C 81% 3.5 mph NNW5.6 kmh NNW 5.8 mph9.3 kmh 29.76 in1007.8 mb - 0.00 in0.0 mm 0.30 in7.6 mm
04:15 AM 68.1°F20.1°C 62.0°F16.7°C 81% 2.3 mph WSW3.7 kmh WSW 5.8 mph9.3 kmh 29.75 in1007.5 mb - 0.00 in0.0 mm 0.30 in7.6 mm
04:00 AM 68.3°F20.2°C 62.2°F16.8°C 81% 3.5 mph NW5.6 kmh NW 4.6 mph7.4 kmh 29.75 in1007.5 mb - 0.01 in0.3 mm 0.30 in7.6 mm
03:45 AM 68.3°F20.2°C 62.6°F17.0°C 82% 2.3 mph WNW3.7 kmh WNW 6.9 mph11.1 kmh 29.74 in1007.1 mb - 0.07 in1.8 mm 0.30 in7.6 mm
03:30 AM 68.3°F20.2°C 62.6°F17.0°C 82% 3.5 mph NNW5.6 kmh NNW 5.8 mph9.3 kmh 29.74 in1007.1 mb - 0.22 in5.6 mm 0.30 in7.6 mm
03:15 AM 68.4°F20.2°C 62.7°F17.1°C 82% 4.6 mph NW7.4 kmh NW 10.4 mph16.7 kmh 29.74 in1007.1 mb - 0.30 in7.6 mm 0.30 in7.6 mm
03:00 AM 68.7°F20.4°C 63.0°F17.2°C 82% 4.6 mph WNW7.4 kmh WNW 9.2 mph14.8 kmh 29.74 in1007.1 mb - 0.29 in7.4 mm 0.29 in7.4 mm
02:45 AM 69.5°F20.8°C 64.5°F18.1°C 84% 3.5 mph WNW5.6 kmh WNW 4.6 mph7.4 kmh 29.73 in1006.8 mb - 0.24 in6.1 mm 0.24 in6.1 mm
02:30 AM 72.4°F22.4°C 66.3°F19.1°C 81% 8.1 mph NW13.0 kmh NW 10.4 mph16.7 kmh 29.74 in1007.1 mb - 0.09 in2.3 mm 0.09 in2.3 mm
02:15 AM 75.8°F24.3°C 69.5°F20.8°C 81% 3.5 mph NE5.6 kmh NE 3.5 mph5.6 kmh 29.70 in1005.8 mb - 0.00 in0.0 mm 0.00 in0.0 mm
02:00 AM 75.9°F24.4°C 69.3°F20.7°C 80% 3.5 mph NE5.6 kmh NE 4.6 mph7.4 kmh 29.70 in1005.8 mb - 0.00 in0.0 mm 0.00 in0.0 mm
01:45 AM 75.7°F24.3°C 69.1°F20.6°C 80% 4.6 mph NE7.4 kmh NE 6.9 mph11.1 kmh 29.71 in1006.1 mb - 0.00 in0.0 mm 0.00 in0.0 mm
01:30 AM 75.1°F23.9°C 68.9°F20.5°C 81% 1.2 mph NE1.9 kmh NE 2.3 mph3.7 kmh 29.72 in1006.4 mb - 0.00 in0.0 mm 0.00 in0.0 mm
01:15 AM 75.4°F24.1°C 68.8°F20.4°C 80% 1.2 mph N1.9 kmh N 1.2 mph1.9 kmh 29.73 in1006.8 mb - 0.00 in0.0 mm 0.00 in0.0 mm
01:00 AM 75.8°F24.3°C 68.4°F20.2°C 78% 1.2 mph NW1.9 kmh NW 1.2 mph1.9 kmh 29.74 in1007.1 mb - 0.00 in0.0 mm 0.00 in0.0 mm
12:45 AM 75.9°F24.4°C 68.5°F20.3°C 78% Calm Calm 1.2 mph1.9 kmh 29.74 in1007.1 mb - 0.00 in0.0 mm 0.00 in0.0 mm
12:30 AM 76.4°F24.7°C 68.3°F20.2°C 76% Calm Calm 1.2 mph1.9 kmh 29.74 in1007.1 mb - 0.00 in0.0 mm 0.00 in0.0 mm
12:15 AM 76.6°F24.8°C 68.5°F20.3°C 76% 1.2 mph NW1.9 kmh NW 2.3 mph3.7 kmh 29.75 in1007.5 mb - 0.00 in0.0 mm 0.00 in0.0 mm
12:01 AM 77.1°F25.1°C 68.6°F20.3°C 75% Calm Calm 1.2 mph1.9 kmh 29.75 in1007.5 mb - 0.00 in0.0 mm 0.00 in0.0 mm